Terminal Aerodrome Forecast
Issued by NWS

Home | Current Version | Previous Version | Text Only | Print | Product List | Glossary On
Versions: 1 2 3 4 5 6 7 8 9 10 11 12
248
FTAK31 PAJN 230530
TAFAYA
TAF
PAYA 230530Z 2306/2406 00000KT P6SM VCSH OVC035
     FM230900 00000KT P6SM SCT040 BKN060
     FM231200 VRB03KT P6SM SCT070 SCT090
     FM240300 00000KT 2SM BR VCFG FEW070
      AMD LTD TO CLD VIS AND WIND 2306/2309=

USA.gov is the U.S. government's official web portal to all federal, state and local government web resources and services.